This demonstration page uses our WeatherBlox Daily Observations layout. Learn more.

38.88101, -77.10428

Hourly Observations for August 9, 2018

Temp ( °F °C ) Dew Point ( °F °C ) Humidity (%) Winds ( mph kmh ) Pressure ( in mb ) Visibility ( mi km ) Precip ( " mm )
12:52 am 00:52 Partly Cloudy 80 26.7 70 21.1 71 71 W 7 11 29.86 1011 10 16.0934 0 0
1:52 am 01:52 Mostly Clear 79 26.1 69 20.6 72 72 WNW 8 13 29.86 1011 10 16.0934 0 0
2:52 am 02:52 Mostly Clear 77 25 68 20 74 74 N 6 9 29.86 1011 10 16.0934 0 0
3:52 am 03:52 Mostly Cloudy 77 25 68 20 74 74 N 6 9 29.85 1011 10 16.0934 0 0
4:52 am 04:52 Partly Cloudy 77 25 67 19.4 71 71 NW 6 9 29.86 1011 10 16.0934 0 0
5:52 am 05:52 Partly Cloudy 75 23.9 67 19.4 76 76 NNW 6 9 29.86 1011 10 16.0934 0 0
6:52 am 06:52 Mostly Cloudy 75 23.9 68 20 79 79 N 8 13 29.87 1011 10 16.0934 0 0
7:52 am 07:52 Mostly Cloudy 79 26.1 68 20 69 69 NNW 8 13 29.88 1012 10 16.0934 0 0
8:52 am 08:52 Mostly Cloudy 82 27.8 69 20.6 65 65 NW 8 13 29.9 1012 10 16.0934 0 0
9:52 am 09:52 Mostly Cloudy 84 28.9 69 20.6 61 61 NNW 14 22 29.9 1012 10 16.0934 0 0
10:52 am 10:52 Mostly Cloudy 86 30 69 20.6 57 57 WNW 7 11 29.91 1013 10 16.0934 0 0
11:52 am 11:52 Mostly Cloudy 86 30 68 20 55 55 NNW 13 20 29.91 1013 10 16.0934 0 0
12:52 pm 12:52 Partly Cloudy 89 31.7 68 20 50 50 NNW 10 17 29.9 1013 10 16.0934 0 0
1:52 pm 13:52 Partly Cloudy 90 32.2 66 18.9 45 45 NNW 9 15 29.89 1012 10 16.0934 0 0
2:52 pm 14:52 Mostly Cloudy 89 31.7 66 18.9 47 47 N 12 19 29.87 1012 10 16.0934 0 0
3:52 pm 15:52 Mostly Cloudy 90 32.2 65 18.3 44 44 N 6 9 29.86 1011 10 16.0934 0 0
4:52 pm 16:52 Partly Cloudy 92 33.3 67 19.4 44 44 NW 9 15 29.85 1011 10 16.0934 0 0
5:52 pm 17:52 Mostly Cloudy 91 32.8 66 18.9 44 44 W 8 13 29.85 1011 10 16.0934 0 0
6:52 pm 18:52 Partly Cloudy 89 31.7 67 19.4 48 48 WNW 7 11 29.85 1011 10 16.0934 0 0
7:52 pm 19:52 Mostly Cloudy 86 30 68 20 55 55 N 7 11 29.85 1011 10 16.0934 0 0
8:52 pm 20:52 Mostly Cloudy 86 30 67 19.4 53 53 NW 5 7 29.88 1012 10 16.0934 0 0
9:52 pm 21:52 Partly Cloudy 84 28.9 67 19.4 57 57 W 3 6 29.9 1013 10 16.0934 0 0
10:52 pm 22:52 Partly Cloudy 82 27.8 70 21.1 67 67 E 3 6 29.9 1013 10 16.0934 0 0
11:52 pm 23:52 Partly Cloudy 80 26.7 72 22.2 76 76 SSE 6 9 29.91 1013 10 16.0934 0 0

Powered by AerisWeather